Time;durP1;ratioP1;P1;durP2;ratioP2;P2;SDS_P1;SDS_P2;PMS_P1;PMS_P2;Temp;Humidity;BMP_temperature;BMP_pressure;BME280_temperature;BME280_humidity;BME280_pressure;Samples;Min_cycle;Max_cycle;Signal;HPM_P1;HPM_P2
2022/04/01 00:02:23;;;;;;;1.20;1.10;;;;;;;;;;6123762;23;20022;-88
2022/04/01 00:04:49;;;;;;;2.20;1.85;;;;;;;;;;6124123;23;20022;-87
2022/04/01 00:07:15;;;;;;;3.95;1.70;;;;;;;;;;6124336;23;20489;-86
2022/04/01 00:09:41;;;;;;;1.48;1.33;;;;;;;;;;6123961;23;20025;-86
2022/04/01 00:12:08;;;;;;;1.90;1.40;;;;;;;;;;6099711;23;20025;-88
2022/04/01 00:14:34;;;;;;;7.28;1.65;;;;;;;;;;6124190;23;20022;-84
2022/04/01 00:17:01;;;;;;;1.98;1.25;;;;;;;;;;6100255;23;20097;-84
2022/04/01 00:19:27;;;;;;;4.03;1.30;;;;;;;;;;6124854;23;20029;-85
2022/04/01 00:21:54;;;;;;;2.20;1.48;;;;;;;;;;6124525;23;20105;-83
2022/04/01 00:24:20;;;;;;;4.25;1.38;;;;;;;;;;6100609;23;20014;-82
2022/04/01 00:26:46;;;;;;;3.15;1.70;;;;;;;;;;6100478;23;20459;-82
2022/04/01 00:29:16;;;;;;;2.42;2.00;;;;;;;;;;6100710;23;20351;-85
2022/04/01 00:31:46;;;;;;;5.22;1.55;;;;;;;;;;6124106;23;20034;-84
2022/04/01 00:34:15;;;;;;;1.80;1.70;;;;;;;;;;6124143;23;20029;-85
2022/04/01 00:36:42;;;;;;;6.57;1.48;;;;;;;;;;6124495;23;20069;-82
2022/04/01 00:39:08;;;;;;;3.75;2.25;;;;;;;;;;6100155;23;20018;-85
2022/04/01 00:41:34;;;;;;;3.55;1.30;;;;;;;;;;6124220;23;20105;-83
2022/04/01 00:44:14;;;;;;;2.75;1.30;;;;;;;;;;6123131;23;20014;-85
2022/04/01 00:46:43;;;;;;;2.10;1.40;;;;;;;;;;6124082;23;20104;-85
2022/04/01 00:49:09;;;;;;;1.80;1.52;;;;;;;;;;6099303;23;20018;-82
2022/04/01 00:51:37;;;;;;;11.93;2.10;;;;;;;;;;6099563;23;20014;-82
2022/04/01 00:54:04;;;;;;;2.92;1.40;;;;;;;;;;6099911;23;20342;-82
2022/04/01 00:56:31;;;;;;;2.05;1.65;;;;;;;;;;6123463;23;20014;-83
2022/04/01 00:58:58;;;;;;;3.22;1.55;;;;;;;;;;6099556;23;20100;-82
2022/04/01 01:01:24;;;;;;;3.17;1.65;;;;;;;;;;6099959;23;20022;-84
2022/04/01 01:03:50;;;;;;;4.53;1.58;;;;;;;;;;6099207;23;20021;-85
2022/04/01 01:06:20;;;;;;;2.55;1.23;;;;;;;;;;6123408;23;20470;-84
2022/04/01 01:08:47;;;;;;;4.38;1.83;;;;;;;;;;6123438;23;20018;-86
2022/04/01 01:11:14;;;;;;;4.15;1.67;;;;;;;;;;6098968;23;20013;-83
2022/04/01 01:13:40;;;;;;;2.83;1.45;;;;;;;;;;6099470;23;20032;-82
2022/04/01 01:16:09;;;;;;;5.50;1.50;;;;;;;;;;6123877;23;20021;-83
2022/04/01 01:18:35;;;;;;;2.35;1.38;;;;;;;;;;6123577;23;20018;-84
2022/04/01 01:21:02;;;;;;;10.07;2.20;;;;;;;;;;6099002;23;20018;-84
2022/04/01 01:23:32;;;;;;;3.90;1.55;;;;;;;;;;6099797;23;20021;-84
2022/04/01 01:25:58;;;;;;;4.38;2.10;;;;;;;;;;6100344;23;20403;-85
2022/04/01 01:28:24;;;;;;;2.22;1.60;;;;;;;;;;6125267;23;20049;-84
2022/04/01 01:30:51;;;;;;;3.72;2.42;;;;;;;;;;6125622;23;20018;-84
2022/04/01 01:33:22;;;;;;;5.43;1.42;;;;;;;;;;6101690;23;20506;-84
2022/04/01 01:35:48;;;;;;;1.80;1.17;;;;;;;;;;6125326;23;20104;-84
2022/04/01 01:38:19;;;;;;;2.13;1.55;;;;;;;;;;6101145;23;20477;-83
2022/04/01 01:40:45;;;;;;;5.05;1.70;;;;;;;;;;6125434;23;20022;-85
2022/04/01 01:43:12;;;;;;;6.13;1.67;;;;;;;;;;6100695;23;20053;-85
2022/04/01 01:45:38;;;;;;;3.92;1.75;;;;;;;;;;6125270;23;20025;-85
2022/04/01 01:48:05;;;;;;;1.65;1.50;;;;;;;;;;6100543;23;20018;-84
2022/04/01 01:56:01;;;;;;;1.55;1.45;;;;;;;;;;6124766;23;20443;-84
2022/04/01 01:58:27;;;;;;;5.35;1.88;;;;;;;;;;6125017;23;20092;-84
2022/04/01 02:00:53;;;;;;;6.20;1.73;;;;;;;;;;6099936;23;20029;-84
2022/04/01 02:03:19;;;;;;;2.22;1.67;;;;;;;;;;6125369;23;20022;-85
2022/04/01 02:05:46;;;;;;;2.15;1.40;;;;;;;;;;6124802;23;20025;-86
2022/04/01 02:08:12;;;;;;;4.95;2.38;;;;;;;;;;6124465;23;20018;-84
2022/04/01 02:10:38;;;;;;;2.05;1.48;;;;;;;;;;6100759;23;20463;-82
2022/04/01 02:13:05;;;;;;;2.72;1.35;;;;;;;;;;6100306;23;20049;-85
2022/04/01 02:15:32;;;;;;;4.55;1.75;;;;;;;;;;6124698;23;20017;-85
2022/04/01 02:17:58;;;;;;;3.63;1.48;;;;;;;;;;6125385;23;20049;-85
2022/04/01 02:20:25;;;;;;;2.38;1.50;;;;;;;;;;6125335;23;20029;-85
2022/04/01 02:22:53;;;;;;;4.15;1.63;;;;;;;;;;6100628;23;20083;-84
2022/04/01 02:25:19;;;;;;;4.55;1.60;;;;;;;;;;6100927;23;20026;-84
2022/04/01 02:27:45;;;;;;;2.25;1.75;;;;;;;;;;6124711;23;20024;-84
2022/04/01 02:30:12;;;;;;;2.13;1.38;;;;;;;;;;6124683;23;20101;-84
2022/04/01 02:32:39;;;;;;;4.32;1.73;;;;;;;;;;6100403;23;20021;-84
2022/04/01 02:35:05;;;;;;;5.80;1.80;;;;;;;;;;6100446;23;20106;-82
2022/04/01 02:37:31;;;;;;;4.50;1.65;;;;;;;;;;6100349;23;20449;-84
2022/04/01 02:39:58;;;;;;;5.90;1.50;;;;;;;;;;6100033;23;20022;-83
2022/04/01 02:42:24;;;;;;;1.67;1.48;;;;;;;;;;6124583;23;20025;-84
2022/04/01 02:44:50;;;;;;;5.22;1.75;;;;;;;;;;6123694;23;20018;-83
2022/04/01 02:47:16;;;;;;;1.67;1.40;;;;;;;;;;6100629;23;20054;-84
2022/04/01 02:49:42;;;;;;;1.92;1.05;;;;;;;;;;6124769;23;20021;-84
2022/04/01 02:52:09;;;;;;;2.38;1.77;;;;;;;;;;6124408;23;20020;-85
2022/04/01 02:54:35;;;;;;;3.13;1.50;;;;;;;;;;6124210;23;20029;-83
2022/04/01 02:57:02;;;;;;;2.65;1.45;;;;;;;;;;6124746;23;20351;-82
2022/04/01 02:59:29;;;;;;;5.55;1.45;;;;;;;;;;6125831;23;20065;-82
2022/04/01 03:01:55;;;;;;;3.47;1.38;;;;;;;;;;6126404;23;20104;-82
2022/04/01 03:04:22;;;;;;;5.00;1.65;;;;;;;;;;6125863;23;20022;-81
2022/04/01 03:06:49;;;;;;;2.15;1.50;;;;;;;;;;6100843;23;20017;-83
2022/04/01 03:09:15;;;;;;;3.17;1.40;;;;;;;;;;6125618;23;20065;-83
2022/04/01 03:11:42;;;;;;;5.88;1.80;;;;;;;;;;6100578;23;20022;-83
2022/04/01 03:14:09;;;;;;;2.95;1.40;;;;;;;;;;6101451;23;20014;-82
2022/04/01 03:16:35;;;;;;;3.13;2.15;;;;;;;;;;6101137;23;20101;-81
2022/04/01 03:19:02;;;;;;;7.03;1.52;;;;;;;;;;6125764;23;20024;-82
2022/04/01 03:21:29;;;;;;;3.92;1.65;;;;;;;;;;6125619;23;20057;-82
2022/04/01 03:23:55;;;;;;;2.85;1.70;;;;;;;;;;6125296;23;20068;-82
2022/04/01 03:26:22;;;;;;;3.92;1.58;;;;;;;;;;6125928;23;20094;-82
2022/04/01 03:28:48;;;;;;;3.30;1.67;;;;;;;;;;6125687;23;20084;-83
2022/04/01 03:31:15;;;;;;;2.95;1.35;;;;;;;;;;6124060;23;20073;-82
2022/04/01 03:33:41;;;;;;;2.83;1.30;;;;;;;;;;6100580;23;20021;-82
2022/04/01 03:36:08;;;;;;;1.35;1.17;;;;;;;;;;6101227;23;20473;-82
2022/04/01 03:38:34;;;;;;;4.22;1.27;;;;;;;;;;6100355;23;20082;-82
2022/04/01 03:41:01;;;;;;;1.38;1.25;;;;;;;;;;6124591;23;20042;-84
2022/04/01 03:43:28;;;;;;;2.65;1.33;;;;;;;;;;6125186;23;20025;-84
2022/04/01 03:45:58;;;;;;;3.45;1.75;;;;;;;;;;6129685;23;20076;-83
2022/04/01 03:48:31;;;;;;;1.65;1.15;;;;;;;;;;6105804;23;20036;-83
2022/04/01 03:50:57;;;;;;;11.68;1.90;;;;;;;;;;6105709;23;20100;-84
2022/04/01 03:53:26;;;;;;;1.80;1.27;;;;;;;;;;6129743;23;20342;-84
2022/04/01 03:55:53;;;;;;;2.20;1.65;;;;;;;;;;6104817;23;20512;-84
2022/04/01 03:58:22;;;;;;;2.33;1.73;;;;;;;;;;6129651;23;20022;-87
2022/04/01 04:00:48;;;;;;;2.60;1.60;;;;;;;;;;6129146;23;20092;-86
2022/04/01 04:03:15;;;;;;;1.70;1.60;;;;;;;;;;6105074;23;20024;-86
2022/04/01 04:05:41;;;;;;;3.63;1.23;;;;;;;;;;6105204;23;20021;-86
2022/04/01 04:08:11;;;;;;;3.38;1.50;;;;;;;;;;6105871;23;20017;-85
2022/04/01 04:10:38;;;;;;;7.03;1.63;;;;;;;;;;6105775;23;20028;-86
2022/04/01 04:13:06;;;;;;;1.58;1.45;;;;;;;;;;6129530;23;20013;-87
2022/04/01 04:15:42;;;;;;;3.85;1.85;;;;;;;;;;6104385;23;20025;-86
2022/04/01 04:18:11;;;;;;;3.17;1.05;;;;;;;;;;6128520;23;20049;-86
2022/04/01 04:21:00;;;;;;;4.55;1.88;;;;;;;;;;6128521;23;20022;-87
2022/04/01 04:23:34;;;;;;;6.10;1.70;;;;;;;;;;6128130;23;20524;-86
2022/04/01 04:26:04;;;;;;;;;;;1.80;99.90;;;;;;6104584;23;20018;-86
2022/04/01 04:28:33;;;;;;;4.45;1.55;;;;;;;;;;6128408;23;20382;-87
2022/04/01 04:31:02;;;;;;;4.43;1.70;;;;;;;;;;6104668;23;20096;-87
2022/04/01 04:33:33;;;;;;;4.20;1.90;;;;;;;;;;6105017;23;20018;-87
2022/04/01 04:36:04;;;;;;;3.75;1.95;;;;;;;;;;6129048;23;20021;-87
2022/04/01 04:38:40;;;;;;;3.83;1.60;;;;;;;;;;6105079;23;20025;-87
2022/04/01 04:41:10;;;;;;;7.47;1.92;;;;;;;;;;6104601;23;20100;-87
2022/04/01 04:43:38;;;;;;;2.92;1.70;;;;;;;;;;6128404;23;20383;-85
2022/04/01 04:46:05;;;;;;;1.45;1.35;;;;;;;;;;6103685;23;20454;-84
2022/04/01 04:48:33;;;;;;;1.85;1.55;;;;;;;;;;6104367;23;20350;-84
2022/04/01 04:51:02;;;;;;;2.25;1.42;;;;;;;;;;6104518;23;20040;-84
2022/04/01 04:53:30;;;;;;;2.83;2.00;;;;;;;;;;6104202;23;20450;-85
2022/04/01 04:55:59;;;;;;;2.67;1.60;;;;;;;;;;6103926;23;20100;-83
2022/04/01 04:58:29;;;;;;;2.85;1.80;;;;;;;;;;6104672;23;20017;-85
2022/04/01 05:01:00;;;;;;;1.90;1.42;;;;;;;;;;6130432;23;20018;-85
2022/04/01 05:03:36;;;;;;;5.72;1.90;;;;;;;;;;6105530;23;20017;-85
2022/04/01 05:06:02;;;;;;;4.90;1.67;;;;;;;;;;6106128;23;20021;-84
2022/04/01 05:08:35;;;;;;;5.40;1.63;;;;;;;;;;6105647;23;20497;-84
2022/04/01 05:11:16;;;;;;;3.55;1.60;;;;;;;;;;6130356;23;20454;-84
2022/04/01 05:14:00;;;;;;;5.00;1.92;;;;;;;;;;6130888;23;20026;-84
2022/04/01 05:16:29;;;;;;;4.00;1.80;;;;;;;;;;6105689;23;20021;-83
2022/04/01 05:19:09;;;;;;;3.58;1.70;;;;;;;;;;6105462;23;20025;-83
2022/04/01 05:21:41;;;;;;;3.40;1.67;;;;;;;;;;6131685;23;20021;-84
2022/04/01 05:24:09;;;;;;;3.53;1.65;;;;;;;;;;6107188;23;20068;-84
2022/04/01 05:26:40;;;;;;;3.05;1.90;;;;;;;;;;6132064;23;20060;-84
2022/04/01 05:29:26;;;;;;;7.28;2.03;;;2.10;99.90;;;;;;6107067;23;20425;-84
2022/04/01 05:32:03;;;;;;;2.45;1.40;;;;;;;;;;6106752;23;20021;-84
2022/04/01 05:34:32;;;;;;;4.85;1.52;;;;;;;;;;6131273;23;20021;-84
2022/04/01 05:36:58;;;;;;;2.50;1.95;;;;;;;;;;6107036;23;20072;-82
2022/04/01 05:39:27;;;;;;;3.58;1.65;;;;;;;;;;6106236;23;20018;-84
2022/04/01 05:41:54;;;;;;;6.15;1.80;;;;;;;;;;6130521;23;20458;-84
2022/04/01 05:44:21;;;;;;;6.35;2.28;;;;;;;;;;6101262;23;20065;-83
2022/04/01 05:46:48;;;;;;;5.72;2.08;;;;;;;;;;6125450;23;20100;-84
2022/04/01 05:49:15;;;;;;;3.47;1.48;;;;;;;;;;6100933;23;20051;-84
2022/04/01 05:51:42;;;;;;;2.53;1.58;;;;;;;;;;6125024;23;20022;-84
2022/04/01 05:54:09;;;;;;;2.70;1.40;;;;;;;;;;6100943;23;20045;-84
2022/04/01 05:56:37;;;;;;;6.13;2.97;;;;;;;;;;6101447;23;20018;-83
2022/04/01 05:59:03;;;;;;;8.10;1.77;;;;;;;;;;6102085;23;20100;-84
2022/04/01 06:01:33;;;;;;;2.15;1.30;;;;;;;;;;6101734;23;20387;-83
2022/04/01 06:04:06;;;;;;;5.32;1.65;;;;;;;;;;6126331;23;20014;-83
2022/04/01 06:06:35;;;;;;;2.88;1.50;;;;;;;;;;6127927;23;20324;-83
2022/04/01 06:09:01;;;;;;;6.82;1.73;;;;;;;;;;6102842;23;20021;-84
2022/04/01 06:11:48;;;;;;;3.45;1.63;;;2.30;99.90;;;;;;6127738;23;20029;-83
2022/04/01 06:14:25;;;;;;;2.85;1.40;;;;;;;;;;6104617;23;20530;-83
2022/04/01 06:16:53;;;;;;;2.85;1.70;;;;;;;;;;6104763;23;20343;-83
2022/04/01 06:19:23;;;;;;;4.28;1.88;;;;;;;;;;6128209;23;20358;-83
2022/04/01 06:21:58;;;;;;;1.63;1.20;;;;;;;;;;6104560;23;20022;-83
2022/04/01 06:24:48;;;;;;;2.45;1.63;;;;;;;;;;6129358;23;20018;-83
2022/04/01 06:27:21;;;;;;;4.45;1.42;;;;;;;;;;6046229;23;20019;-84
2022/04/01 06:29:55;;;;;;;5.43;1.98;;;;;;;;;;6022608;23;20023;-83
2022/04/01 06:32:24;;;;;;;3.90;2.10;;;;;;;;;;6022693;23;20102;-83
2022/04/01 06:34:56;;;;;;;3.97;1.73;;;;;;;;;;6022797;23;20018;-82
2022/04/01 06:37:27;;;;;;;3.80;1.88;;;;;;;;;;6046250;23;20068;-84
2022/04/01 06:40:05;;;;;;;3.55;1.80;;;;;;;;;;6045534;23;20337;-83
2022/04/01 06:42:32;;;;;;;3.35;1.98;;;;;;;;;;6022195;23;20106;-84
2022/04/01 06:44:58;;;;;;;4.05;1.50;;;;;;;;;;6046424;23;20031;-82
2022/04/01 06:47:24;;;;;;;5.13;1.50;;;;;;;;;;6046888;23;20026;-83
2022/04/01 06:49:51;;;;;;;3.08;2.03;;;;;;;;;;6046796;23;20015;-84
2022/04/01 06:52:19;;;;;;;4.55;1.55;;;;;;;;;;6021367;23;20023;-84
2022/04/01 06:54:46;;;;;;;3.58;1.40;;;;;;;;;;6022964;23;20019;-84
2022/04/01 06:57:14;;;;;;;4.72;1.40;;;;;;;;;;6069912;23;20023;-84
2022/04/01 06:59:40;;;;;;;3.70;1.63;;;;;;;;;;6070099;23;20023;-83
2022/04/01 07:02:07;;;;;;;5.35;1.88;;;;;;;;;;6070327;23;20018;-84
2022/04/01 07:04:34;;;;;;;3.30;1.45;;;;;;;;;;6099098;23;20021;-85
2022/04/01 07:07:00;;;;;;;2.72;1.40;;;;;;;;;;6128689;23;20024;-84
2022/04/01 07:09:26;;;;;;;5.03;1.60;;;;;;;;;;6129835;23;20379;-84
2022/04/01 07:11:53;;;;;;;5.82;2.33;;;;;;;;;;6130898;23;20093;-84
2022/04/01 07:14:19;;;;;;;8.10;2.03;;;;;;;;;;6130412;23;20466;-84
2022/04/01 07:16:45;;;;;;;1.30;1.20;;;;;;;;;;6129902;23;20010;-86
2022/04/01 07:19:11;;;;;;;6.35;1.38;;;;;;;;;;6131643;23;20404;-84
2022/04/01 07:21:37;;;;;;;4.50;1.83;;;;;;;;;;6130503;23;20024;-84
2022/04/01 07:24:04;;;;;;;2.03;1.58;;;;;;;;;;6130723;23;20052;-84
2022/04/01 07:26:30;;;;;;;4.43;1.80;;;;;;;;;;6129274;23;20026;-84
2022/04/01 07:28:57;;;;;;;1.77;1.35;;;;;;;;;;6104724;23;20018;-84
2022/04/01 07:34:24;;;;;;;4.35;1.75;;;;;;;;;;6042658;23;20024;-82
2022/04/01 07:36:51;;;;;;;2.67;1.42;;;;;;;;;;6114788;23;20026;-82
2022/04/01 07:39:17;;;;;;;2.28;1.65;;;;;;;;;;6127970;23;20013;-83
2022/04/01 07:41:43;;;;;;;2.47;1.30;;;;;;;;;;6126071;23;20383;-82
2022/04/01 07:44:09;;;;;;;2.00;1.58;;;;;;;;;;6101402;23;20022;-82
2022/04/01 07:46:35;;;;;;;10.82;2.33;;;;;;;;;;6126302;23;20018;-82
2022/04/01 07:49:02;;;;;;;2.17;1.80;;;;;;;;;;6126054;23;20417;-83
2022/04/01 07:51:28;;;;;;;7.10;1.80;;;;;;;;;;6127889;23;20014;-84
2022/04/01 07:53:54;;;;;;;1.90;1.63;;;;;;;;;;6126810;23;20038;-84
2022/04/01 07:56:20;;;;;;;4.82;1.42;;;;;;;;;;6126787;23;20514;-84
2022/04/01 07:58:46;;;;;;;1.35;1.20;;;;;;;;;;6127213;23;20018;-86
2022/04/01 08:01:12;;;;;;;3.53;1.67;;;;;;;;;;6126858;23;20419;-85
2022/04/01 08:03:41;;;;;;;1.83;1.73;;;;;;;;;;6127844;23;20025;-85
2022/04/01 08:06:07;;;;;;;1.48;1.20;;;;;;;;;;6126883;23;20477;-86
2022/04/01 08:08:33;;;;;;;2.20;1.27;;;;;;;;;;6127114;23;20018;-85
2022/04/01 08:11:00;;;;;;;1.63;1.30;;;;;;;;;;6127015;23;20021;-86
2022/04/01 08:13:26;;;;;;;3.10;1.42;;;;;;;;;;6127111;23;20018;-86
2022/04/01 08:15:52;;;;;;;2.75;1.67;;;;;;;;;;6125288;23;20021;-85
2022/04/01 08:18:19;;;;;;;3.42;2.13;;;;;;;;;;6100175;23;20092;-85
2022/04/01 08:20:45;;;;;;;3.65;1.27;;;;;;;;;;6099869;23;20112;-85
2022/04/01 08:23:11;;;;;;;1.77;1.50;;;;;;;;;;6099918;23;20347;-86
2022/04/01 08:25:37;;;;;;;4.80;1.52;;;;;;;;;;6100267;23;20018;-85
2022/04/01 08:28:04;;;;;;;2.15;1.38;;;;;;;;;;6099473;23;20051;-86
2022/04/01 08:30:31;;;;;;;1.77;1.10;;;;;;;;;;6099553;23;20022;-86
2022/04/01 08:32:57;;;;;;;3.55;1.27;;;;;;;;;;6124808;23;20018;-86
2022/04/01 08:35:23;;;;;;;3.92;1.50;;;;;;;;;;6124043;23;20025;-86
2022/04/01 08:37:55;;;;;;;1.70;1.17;;;;;;;;;;6124874;23;20061;-85
2022/04/01 08:40:21;;;;;;;1.88;1.42;;;;;;;;;;6124421;23;20359;-85
2022/04/01 08:42:48;;;;;;;1.63;1.15;;;;;;;;;;6124769;23;20450;-85
2022/04/01 08:45:17;;;;;;;3.95;1.50;;;;;;;;;;6100340;23;20018;-85
2022/04/01 08:47:43;;;;;;;3.00;1.27;;;;;;;;;;6100672;23;20025;-85
2022/04/01 08:50:09;;;;;;;1.92;1.70;;;;;;;;;;6125244;23;20018;-84
2022/04/01 08:52:35;;;;;;;3.78;1.30;;;;;;;;;;6100468;23;20403;-85
2022/04/01 08:55:03;;;;;;;1.50;1.25;;;;;;;;;;6124416;23;20355;-86
2022/04/01 08:57:34;;;;;;;1.40;1.30;;;;;;;;;;6100315;23;20394;-87
2022/04/01 09:00:00;;;;;;;1.83;1.25;;;;;;;;;;6100911;23;20026;-86
2022/04/01 09:02:26;;;;;;;1.80;1.70;;;;;;;;;;6100221;23;20459;-85
2022/04/01 09:05:06;;;;;;;2.28;1.40;;;;;;;;;;6126797;23;20018;-86
2022/04/01 09:07:32;;;;;;;3.67;1.60;;;;;;;;;;6100572;23;20018;-85
2022/04/01 09:10:02;;;;;;;1.50;1.40;;;;;;;;;;6100604;23;20049;-87
2022/04/01 09:12:31;;;;;;;1.70;1.60;;;;;;;;;;6124988;23;20022;-86
2022/04/01 09:14:58;;;;;;;2.92;1.42;;;;;;;;;;6125758;23;20022;-86
2022/04/01 09:17:41;;;;;;;4.32;1.38;;;;;;;;;;6100261;23;20088;-85
2022/04/01 09:20:07;;;;;;;2.90;2.20;;;;;;;;;;6100594;23;20355;-86
2022/04/01 09:22:34;;;;;;;2.17;1.45;;;;;;;;;;6100556;23;20459;-86
2022/04/01 09:25:02;;;;;;;4.47;1.63;;;;;;;;;;6124495;23;20489;-86
2022/04/01 09:27:47;;;;;;;8.18;1.70;;;;;;;;;;6100643;23;20022;-86
2022/04/01 09:30:17;;;;;;;5.13;1.85;;;;;;;;;;6124834;23;20069;-87
2022/04/01 09:32:45;;;;;;;2.17;1.95;;;;;;;;;;6102829;23;20463;-86
2022/04/01 09:35:12;;;;;;;7.88;1.92;;;;;;;;;;6127368;23;20025;-85
2022/04/01 09:37:39;;;;;;;3.63;1.88;;;;;;;;;;6127870;23;20022;-86
2022/04/01 09:40:06;;;;;;;2.08;1.80;;;;;;;;;;6102922;23;20018;-87
2022/04/01 09:42:33;;;;;;;4.88;2.38;;;;;;;;;;6103173;23;20014;-87
2022/04/01 09:45:00;;;;;;;1.83;1.60;;;;;;;;;;6127206;23;20054;-86
2022/04/01 09:47:26;;;;;;;1.90;1.65;;;;;;;;;;6104311;23;20029;-86
2022/04/01 09:49:54;;;;;;;1.63;1.52;;;;;;;;;;6105258;23;20018;-85
2022/04/01 09:52:22;;;;;;;1.45;1.30;;;;;;;;;;6129430;23;20014;-85
2022/04/01 09:54:49;;;;;;;2.60;1.40;;;;;;;;;;6104736;23;20018;-85
2022/04/01 09:57:17;;;;;;;2.63;1.85;;;;;;;;;;6129250;23;20072;-84
2022/04/01 09:59:43;;;;;;;1.77;1.67;;;;;;;;;;6128084;23;20018;-85
2022/04/01 10:02:10;;;;;;;3.63;1.40;;;;;;;;;;6104286;23;20362;-85
2022/04/01 10:04:36;;;;;;;4.82;1.70;;;;;;;;;;6104196;23;20042;-87
2022/04/01 10:07:05;;;;;;;2.40;1.60;;;;;;;;;;6128986;23;20025;-87
2022/04/01 10:09:32;;;;;;;3.22;1.33;;;;;;;;;;6129090;23;20010;-86
2022/04/01 10:11:58;;;;;;;2.03;1.55;;;;;;;;;;6128759;23;20017;-87
2022/04/01 10:14:26;;;;;;;1.40;1.30;;;;;;;;;;6128931;23;20018;-86
2022/04/01 10:16:54;;;;;;;3.00;1.63;;;;;;;;;;6105000;23;20018;-83
2022/04/01 10:19:26;;;;;;;2.50;1.70;;;;;;;;;;6104394;23;20018;-85
2022/04/01 10:21:52;;;;;;;1.65;1.40;;;;;;;;;;6128590;23;20069;-87
2022/04/01 10:24:39;;;;;;;4.75;1.35;;;;;;;;;;6128424;23;20014;-86
2022/04/01 10:27:08;;;;;;;5.40;1.65;;;;;;;;;;6104038;23;20455;-86
2022/04/01 10:29:35;;;;;;;3.90;1.63;;;;;;;;;;6127967;23;20399;-84
2022/04/01 10:32:20;;;;;;;3.55;1.52;;;;;;;;;;6103251;23;20037;-84
2022/04/01 10:34:47;;;;;;;2.88;1.58;;;;;;;;;;6128064;23;20022;-86
2022/04/01 10:37:14;;;;;;;9.63;1.73;;;;;;;;;;6103843;23;20041;-87
2022/04/01 10:39:47;;;;;;;2.90;0.88;;;;;;;;;;6103763;23;20501;-86
2022/04/01 10:42:13;;;;;;;1.88;1.48;;;;;;;;;;6103480;23;20018;-87
2022/04/01 10:44:49;;;;;;;1.55;1.02;;;;;;;;;;6128367;23;20020;-88
2022/04/01 10:47:15;;;;;;;6.03;1.88;;;;;;;;;;6128160;23;20022;-86
2022/04/01 10:52:27;;;;;;;1.10;1.02;;;;;;;;;;6128670;23;20072;-88
2022/04/01 10:55:07;;;;;;;2.20;1.20;;;;;;;;;;6128826;23;20036;-90
2022/04/01 10:57:39;;;;;;;1.63;1.30;;;;;;;;;;6127850;23;20069;-88
2022/04/01 11:00:14;;;;;;;7.25;1.23;;;;;;;;;;6127121;23;20022;-87
2022/04/01 11:02:40;;;;;;;2.83;1.35;;;;;;;;;;6102576;23;20022;-87
2022/04/01 11:05:22;;;;;;;4.53;1.23;;;;;;;;;;6102452;23;20057;-84
2022/04/01 11:08:08;;;;;;;4.78;0.98;;;;;;;;;;6103481;23;20018;-90
2022/04/01 11:10:34;;;;;;;1.38;1.08;;;;;;;;;;6102688;23;20454;-89
2022/04/01 11:13:01;;;;;;;0.80;0.80;;;;;;;;;;6127818;23;20355;-91
2022/04/01 11:15:28;;;;;;;0.90;0.77;;;;;;;;;;6128434;23;20021;-89
2022/04/01 11:17:57;;;;;;;1.10;1.00;;;;;;;;;;6104504;23;20018;-90
2022/04/01 11:20:29;;;;;;;1.23;1.13;;;;;;;;;;6103259;23;20109;-88
2022/04/01 11:22:56;;;;;;;2.95;1.38;;;;;;;;;;6127100;23;20021;-85
2022/04/01 11:25:23;;;;;;;3.58;1.17;;;;;;;;;;6126613;23;20451;-86
2022/04/01 11:27:50;;;;;;;1.08;0.90;;;;;;;;;;6126249;23;20022;-84
2022/04/01 11:30:17;;;;;;;2.03;1.40;;;;;;;;;;6101705;23;20022;-86
2022/04/01 11:32:44;;;;;;;3.22;0.93;;;;;;;;;;6102018;23;20017;-85
2022/04/01 11:35:11;;;;;;;1.67;0.98;;;;;;;;;;6126327;23;20362;-85
2022/04/01 11:37:40;;;;;;;1.52;0.85;;;;;;;;;;6126347;23;20014;-85
2022/04/01 11:40:10;;;;;;;3.58;0.98;;;;;;;;;;6126563;23;20024;-84
2022/04/01 11:42:58;;;;;;;3.35;1.20;;;;;;;;;;6102492;23;20017;-84
2022/04/01 11:45:25;;;;;;;1.40;1.15;;;;;;;;;;6127496;23;20438;-85
2022/04/01 11:47:52;;;;;;;1.20;1.10;;;;;;;;;;6103257;23;20029;-85
2022/04/01 11:50:20;;;;;;;1.35;1.25;;;;;;;;;;6126825;23;20093;-85
2022/04/01 11:52:47;;;;;;;2.17;1.02;;;;;;;;;;6102033;23;20049;-83
2022/04/01 11:55:15;;;;;;;3.25;1.55;;;;;;;;;;6126860;23;20103;-85
2022/04/01 11:57:41;;;;;;;3.50;1.70;;;;;;;;;;6126148;23;20021;-86
2022/04/01 12:00:11;;;;;;;2.70;1.75;;;;;;;;;;6101945;23;20014;-85
2022/04/01 12:02:38;;;;;;;2.78;1.50;;;;;;;;;;6126875;23;20287;-86
2022/04/01 12:05:04;;;;;;;0.90;0.90;;;;;;;;;;6100266;23;20029;-85
2022/04/01 12:10:22;;;;;;;1.35;1.25;;;;;;;;;;6126520;23;20029;-86
2022/04/01 12:13:00;;;;;;;1.17;1.07;;;;;;;;;;6126997;23;20022;-86
2022/04/01 12:15:31;;;;;;;2.63;1.20;;;;;;;;;;6101846;23;20022;-87
2022/04/01 12:17:57;;;;;;;3.38;1.27;;;;;;;;;;6127503;23;20022;-87
2022/04/01 12:20:26;;;;;;;3.08;1.48;;;;;;;;;;6127662;23;20065;-86
2022/04/01 12:22:52;;;;;;;3.97;0.90;;;;;;;;;;6103225;23;20018;-86
2022/04/01 12:25:19;;;;;;;4.75;1.33;;;;;;;;;;6102045;23;20053;-89
2022/04/01 12:27:52;;;;;;;1.40;1.05;;;;;;;;;;6101541;23;20018;-86
2022/04/01 12:30:30;;;;;;;1.20;0.93;;;;;;;;;;6124644;23;20022;-86
2022/04/01 12:32:57;;;;;;;1.10;1.00;;;;;;;;;;6100658;23;20250;-83
2022/04/01 12:35:23;;;;;;;2.75;1.20;;;;;;;;;;6124775;23;20459;-84
2022/04/01 12:38:03;;;;;;;2.95;1.60;;;;;;;;;;6124959;23;20036;-84
2022/04/01 12:40:33;;;;;;;1.33;1.10;;;;;;;;;;6126421;23;20459;-84
2022/04/01 12:43:00;;;;;;;4.78;1.40;;;;;;;;;;6100781;23;20069;-84
2022/04/01 12:45:26;;;;;;;1.25;1.15;;;;;;;;;;6124841;23;20077;-84
2022/04/01 12:47:52;;;;;;;2.33;1.27;;;;;;;;;;6124713;23;20396;-83
2022/04/01 12:50:50;;;;;;;1.77;1.27;;;;;;;;;;6126339;23;20024;-84
2022/04/01 12:53:16;;;;;;;1.65;1.27;;;;;;;;;;6066544;23;20507;-83
2022/04/01 12:55:43;;;;;;;3.47;1.52;;;;;;;;;;6066151;23;20062;-83
2022/04/01 12:58:14;;;;;;;1.50;1.00;;;;;;;;;;6017154;23;20018;-83
2022/04/01 13:00:40;;;;;;;3.20;1.20;;;;;;;;;;6041890;23;20046;-83
2022/04/01 13:03:08;;;;;;;3.63;1.33;;;;;;;;;;6017127;23;20025;-82
2022/04/01 13:05:34;;;;;;;2.15;1.30;;;;;;;;;;6017114;23;20033;-83
2022/04/01 13:08:01;;;;;;;6.63;1.85;;;;;;;;;;6040955;23;20075;-83
2022/04/01 13:10:27;;;;;;;2.13;1.30;;;;;;;;;;6064029;23;20150;-82
2022/04/01 13:12:55;;;;;;;3.28;1.35;;;;;;;;;;6040349;23;20496;-81
2022/04/01 13:15:27;;;;;;;1.92;1.42;;;;;;;;;;6042092;23;20031;-83
2022/04/01 13:17:54;;;;;;;2.67;1.60;;;;;;;;;;6017775;23;20030;-82
2022/04/01 13:20:21;;;;;;;5.25;1.42;;;;;;;;;;6065829;23;20026;-83
2022/04/01 13:22:47;;;;;;;2.38;1.60;;;;;;;;;;6067047;23;20522;-84
2022/04/01 13:25:15;;;;;;;1.88;1.45;;;;;;;;;;6042031;23;20022;-83
2022/04/01 13:27:41;;;;;;;2.88;1.88;;;;;;;;;;6021485;23;20019;-82
2022/04/01 13:30:08;;;;;;;3.03;1.27;;;;;;;;;;6127227;23;20022;-83
2022/04/01 13:32:35;;;;;;;3.33;1.65;;;;;;;;;;6101865;23;20494;-83
2022/04/01 13:35:02;;;;;;;2.85;1.58;;;;;;;;;;6125865;23;20057;-82
2022/04/01 13:37:28;;;;;;;4.22;1.73;;;;;;;;;;6099725;23;20064;-83
2022/04/01 13:39:54;;;;;;;1.67;1.33;;;;;;;;;;6125856;23;20021;-84
2022/04/01 13:42:23;;;;;;;5.43;1.85;;;;;;;;;;6125461;23;20021;-83
2022/04/01 13:44:49;;;;;;;1.95;1.50;;;;;;;;;;6126544;23;20394;-83
2022/04/01 13:47:17;;;;;;;1.65;1.23;;;;;;;;;;6126108;23;20018;-85
2022/04/01 13:49:43;;;;;;;3.25;2.08;;;;;;;;;;6126821;23;20329;-83
2022/04/01 13:52:10;;;;;;;3.58;1.45;;;;;;;;;;6102556;23;20324;-84
2022/04/01 13:54:36;;;;;;;1.73;1.50;;;;;;;;;;6127584;23;20046;-84
2022/04/01 13:57:03;;;;;;;3.65;1.50;;;;;;;;;;6102919;23;20018;-83
2022/04/01 13:59:29;;;;;;;5.00;2.25;;;;;;;;;;6126554;23;20021;-85
2022/04/01 14:01:56;;;;;;;4.90;1.98;;;;;;;;;;6101660;23;20127;-83
2022/04/01 14:04:22;;;;;;;1.80;1.70;;;;;;;;;;6101052;23;20018;-87
2022/04/01 14:06:50;;;;;;;3.42;1.75;;;;;;;;;;6126509;23;20018;-83
2022/04/01 14:09:16;;;;;;;1.48;1.35;;;;;;;;;;6101794;23;20024;-83
2022/04/01 14:11:43;;;;;;;5.57;1.48;;;;;;;;;;6101925;23;20018;-83
2022/04/01 14:14:09;;;;;;;4.13;1.90;;;;;;;;;;6126461;23;20347;-83
2022/04/01 14:16:36;;;;;;;4.40;2.08;;;;;;;;;;6100106;23;20435;-83
2022/04/01 14:19:05;;;;;;;1.88;1.23;;;;;;;;;;6100618;23;20022;-82
2022/04/01 14:21:31;;;;;;;2.78;1.80;;;;;;;;;;6101935;23;20073;-85
2022/04/01 14:23:57;;;;;;;2.55;1.52;;;;;;;;;;6125011;23;20018;-83
2022/04/01 14:26:25;;;;;;;2.08;1.27;;;;;;;;;;6125353;23;20036;-84
2022/04/01 14:28:51;;;;;;;4.97;1.60;;;;;;;;;;6123167;23;20108;-84
2022/04/01 14:31:19;;;;;;;2.22;1.63;;;;;;;;;;6100932;23;20022;-83
2022/04/01 14:33:46;;;;;;;3.33;2.10;;;;;;;;;;6126149;23;20411;-84
2022/04/01 14:36:12;;;;;;;2.40;1.45;;;;;;;;;;6126898;23;20049;-84
2022/04/01 14:38:40;;;;;;;1.73;1.25;;;;;;;;;;6126409;23;20025;-83
2022/04/01 14:41:06;;;;;;;5.95;2.08;;;;;;;;;;6126148;23;20076;-82
2022/04/01 14:43:32;;;;;;;4.35;1.75;;;;;;;;;;6102185;23;20017;-84
2022/04/01 14:45:58;;;;;;;6.18;1.73;;;;;;;;;;6102100;23;20022;-84
2022/04/01 14:48:25;;;;;;;2.15;1.40;;;;;;;;;;6100885;23;20022;-83
2022/04/01 14:50:51;;;;;;;3.90;2.40;;;;;;;;;;6101369;23;20022;-83
2022/04/01 14:53:17;;;;;;;4.30;1.50;;;;;;;;;;6125500;23;20067;-84
2022/04/01 14:55:44;;;;;;;4.45;1.52;;;;;;;;;;6101787;23;20336;-84
2022/04/01 14:58:10;;;;;;;2.50;1.40;;;;;;;;;;6125999;23;20021;-85
2022/04/01 15:00:36;;;;;;;2.50;1.42;;;;;;;;;;6125876;23;20022;-82
2022/04/01 15:03:03;;;;;;;2.08;1.30;;;;;;;;;;6100131;23;20050;-83
2022/04/01 15:05:29;;;;;;;5.45;1.70;;;;;;;;;;6125942;23;20018;-88